Time;durP1;ratioP1;P1;durP2;ratioP2;P2;SDS_P1;SDS_P2;PMS_P1;PMS_P2;Temp;Humidity;BMP_temperature;BMP_pressure;BME280_temperature;BME280_humidity;BME280_pressure;Samples;Min_cycle;Max_cycle;Signal;HPM_P1;HPM_P2
2022/01/22 00:00:30;;;;;;;0.20;0.20;;;;;;;;;;4932534;29;20031;-70
2022/01/22 00:02:56;;;;;;;0.17;0.17;;;;;;;;;;4944037;29;20026;-70
2022/01/22 00:05:25;;;;;;;0.10;0.10;;;;;;;;;;4942125;29;20031;-70
2022/01/22 00:07:51;;;;;;;0.05;0.05;;;;;;;;;;4946023;29;20031;-70
2022/01/22 00:10:20;;;;;;;0.43;0.43;;;;;;;;;;4932733;28;20070;-70
2022/01/22 00:15:17;;;;;;;1.30;0.75;;;;;;;;;;4937049;29;20078;-70
2022/01/22 00:17:44;;;;;;;0.10;0.10;;;;;;;;;;4931119;29;20035;-70
2022/01/22 00:20:10;;;;;;;0.22;0.22;;;;;;;;;;4938903;28;20019;-70
2022/01/22 00:22:37;;;;;;;0.25;0.25;;;;;;;;;;4933095;28;20027;-70
2022/01/22 00:25:07;;;;;;;0.50;0.32;;;;;;;;;;4932869;28;20106;-70
2022/01/22 00:27:33;;;;;;;0.03;0.03;;;;;;;;;;4934733;29;20509;-70
2022/01/22 00:29:59;;;;;;;0.10;0.10;;;;;;;;;;4938456;29;20453;-70
2022/01/22 00:32:25;;;;;;;0.10;0.10;;;;;;;;;;4931203;29;20046;-70
2022/01/22 00:34:51;;;;;;;1.30;0.57;;;;;;;;;;4938685;29;20034;-70
2022/01/22 00:37:17;;;;;;;0.20;0.20;;;;;;;;;;4942227;29;20023;-70
2022/01/22 00:39:43;;;;;;;1.00;0.70;;;;;;;;;;4938330;29;20035;-70
2022/01/22 00:42:11;;;;;;;0.10;0.10;;;;;;;;;;4934448;29;20085;-70
2022/01/22 00:44:37;;;;;;;0.90;0.43;;;;;;;;;;4935621;29;20529;-69
2022/01/22 00:47:03;;;;;;;0.32;0.30;;;;;;;;;;4936051;29;20075;-70
2022/01/22 00:49:30;;;;;;;0.45;0.45;;;;;;;;;;4937872;29;20111;-71
2022/01/22 00:51:56;;;;;;;0.35;0.35;;;;;;;;;;4936186;29;20078;-70
2022/01/22 00:54:22;;;;;;;0.10;0.10;;;;;;;;;;4938435;29;20038;-70
2022/01/22 00:56:48;;;;;;;0.20;0.20;;;;;;;;;;4935063;29;20023;-70
2022/01/22 00:59:14;;;;;;;0.10;0.10;;;;;;;;;;4939231;29;20035;-70
2022/01/22 01:01:40;;;;;;;1.40;0.57;;;;;;;;;;4937626;28;20023;-70
2022/01/22 01:04:09;;;;;;;0.10;0.10;;;;;;;;;;4933079;28;20035;-70
2022/01/22 01:06:35;;;;;;;0.00;0.00;;;;;;;;;;4933850;29;20035;-70
2022/01/22 01:09:03;;;;;;;0.45;0.45;;;;;;;;;;4932288;28;20054;-71
2022/01/22 01:11:31;;;;;;;0.10;0.10;;;;;;;;;;4936003;28;20046;-70
2022/01/22 01:14:00;;;;;;;0.10;0.10;;;;;;;;;;4935194;29;20170;-70
2022/01/22 01:33:10;;;;;;;0.40;0.40;;;;;;;;;;4943654;28;20280;-70
2022/01/22 01:35:38;;;;;;;0.00;0.00;;;;;;;;;;4943194;28;20118;-71
2022/01/22 01:38:05;;;;;;;0.25;0.25;;;;;;;;;;4942630;28;20492;-70
2022/01/22 01:40:33;;;;;;;0.00;0.00;;;;;;;;;;4941218;28;20070;-70
2022/01/22 01:43:20;;;;;;;0.10;0.10;;;;;;;;;;4948106;28;20027;-71
2022/01/22 01:45:46;;;;;;;0.20;0.20;;;;;;;;;;4935031;29;20093;-71
2022/01/22 01:48:18;;;;;;;0.30;0.30;;;;;;;;;;4946378;28;20115;-70
2022/01/22 01:50:44;;;;;;;0.30;0.30;;;;;;;;;;4946224;28;20035;-71
2022/01/22 01:58:24;;;;;;;0.10;0.10;;;;;;;;;;4946005;28;20071;-70
2022/01/22 02:00:50;;;;;;;0.20;0.20;;;;;;;;;;4944365;29;20048;-71
2022/01/22 02:03:17;;;;;;;0.00;0.00;;;;;;;;;;4946713;28;20027;-70
2022/01/22 02:05:43;;;;;;;0.13;0.13;;;;;;;;;;4936853;29;20525;-71
2022/01/22 02:08:09;;;;;;;0.65;0.63;;;;;;;;;;4933368;28;20024;-70
2022/01/22 02:10:41;;;;;;;0.10;0.10;;;;;;;;;;4929300;28;20032;-71
2022/01/22 02:24:07;;;;;;;0.38;0.20;;;;;;;;;;4933547;29;20509;-70
2022/01/22 02:26:33;;;;;;;0.52;0.30;;;;;;;;;;4938247;28;20404;-71
2022/01/22 02:28:59;;;;;;;0.20;0.20;;;;;;;;;;4937062;29;20382;-71
2022/01/22 02:31:33;;;;;;;0.28;0.28;;;;;;;;;;4941759;28;20045;-71
2022/01/22 02:36:35;;;;;;;0.20;0.20;;;;;;;;;;4943985;28;20097;-71
2022/01/22 02:41:30;;;;;;;0.43;0.43;;;;;;;;;;4941269;29;20050;-70
2022/01/22 02:43:56;;;;;;;0.28;0.22;;;;;;;;;;4939784;28;20039;-70
2022/01/22 02:46:27;;;;;;;0.88;0.55;;;;;;;;;;4941592;28;20081;-71
2022/01/22 02:48:54;;;;;;;0.20;0.20;;;;;;;;;;4946563;28;20043;-70
2022/01/22 02:51:21;;;;;;;0.20;0.20;;;;;;;;;;4940942;28;20585;-71
2022/01/22 02:53:49;;;;;;;0.05;0.05;;;;;;;;;;4943044;29;20272;-71
2022/01/22 02:56:16;;;;;;;0.20;0.20;;;;;;;;;;4943810;28;20260;-71
2022/01/22 02:58:42;;;;;;;0.10;0.10;;;;;;;;;;4936974;29;20157;-70
2022/01/22 03:01:08;;;;;;;0.10;0.10;;;;;;;;;;4940086;29;20538;-71
2022/01/22 03:03:33;;;;;;;0.10;0.10;;;;;;;;;;4941165;28;20023;-71
2022/01/22 03:06:01;;;;;;;0.43;0.43;;;;;;;;;;4931111;29;20720;-71
2022/01/22 03:08:28;;;;;;;0.08;0.08;;;;;;;;;;4941019;28;20035;-70
2022/01/22 03:10:55;;;;;;;0.47;0.47;;;;;;;;;;4940662;28;20079;-71
2022/01/22 03:16:14;;;;;;;0.10;0.10;;;;;;;;;;4922604;29;20047;-71
2022/01/22 03:21:28;;;;;;;5.10;1.45;;;;;;;;;;4943427;29;20086;-71
2022/01/22 03:29:33;;;;;;;0.10;0.10;;;;;;;;;;4936808;29;20394;-70
2022/01/22 03:31:59;;;;;;;0.00;0.00;;;;;;;;;;4945788;29;20043;-71
2022/01/22 03:34:27;;;;;;;0.03;0.03;;;;;;;;;;4935937;29;20031;-71
2022/01/22 03:36:53;;;;;;;0.00;0.00;;;;;;;;;;4940150;28;20042;-71
2022/01/22 03:39:19;;;;;;;0.10;0.10;;;;;;;;;;4939275;28;20027;-71
2022/01/22 03:41:45;;;;;;;0.10;0.10;;;;;;;;;;4938329;28;20245;-71
2022/01/22 03:44:11;;;;;;;0.00;0.00;;;;;;;;;;4943203;28;20035;-71
2022/01/22 03:46:38;;;;;;;0.10;0.10;;;;;;;;;;4927501;28;20453;-70
2022/01/22 03:49:05;;;;;;;1.95;0.65;;;;;;;;;;4939814;28;20038;-70
2022/01/22 03:51:31;;;;;;;0.43;0.43;;;;;;;;;;4938051;29;20058;-71
2022/01/22 03:53:58;;;;;;;0.10;0.10;;;;;;;;;;4939836;28;20497;-71
2022/01/22 03:56:25;;;;;;;0.13;0.13;;;;;;;;;;4943786;28;20066;-70
2022/01/22 03:58:51;;;;;;;0.10;0.10;;;;;;;;;;4938539;28;20023;-71
2022/01/22 04:04:10;;;;;;;0.20;0.20;;;;;;;;;;4939318;28;20097;-70
2022/01/22 04:07:20;;;;;;;0.30;0.30;;;;;;;;;;4934240;28;20027;-71
2022/01/22 04:09:40;;;;;;;0.10;0.10;;;;;;;;;;4941945;28;20043;-71
2022/01/22 04:12:06;;;;;;;;;;;;;;;;;;4939869;28;20031;-71
2022/01/22 04:14:34;;;;;;;0.10;0.10;;;;;;;;;;4930568;28;20298;-70
2022/01/22 04:25:26;;;;;;;0.10;0.10;;;;;;;;;;4940349;28;20051;-70
2022/01/22 04:27:53;;;;;;;0.10;0.10;;;;;;;;;;4936141;28;20486;-71
2022/01/22 04:30:20;;;;;;;0.00;0.00;;;;;;;;;;4931969;29;20125;-70
2022/01/22 04:32:45;;;;;;;0.10;0.10;;;;;;;;;;4936216;29;20122;-71
2022/01/22 04:35:11;;;;;;;0.10;0.10;;;;;;;;;;4942324;29;20382;-71
2022/01/22 04:37:38;;;;;;;39.63;0.85;;;;;;;;;;4938121;29;20019;-70
2022/01/22 04:40:04;;;;;;;0.20;0.20;;;;;;;;;;4925834;28;20503;-71
2022/01/22 04:42:33;;;;;;;2.72;1.65;;;;;;;;;;4936897;29;20035;-70
2022/01/22 04:45:07;;;;;;;0.10;0.10;;;;;;;;;;4935243;28;20098;-70
2022/01/22 04:47:48;;;;;;;0.20;0.20;;;;;;;;;;4928932;28;20486;-70
2022/01/22 04:55:38;;;;;;;0.10;0.10;;;;;;;;;;4934770;28;20031;-70
2022/01/22 04:58:04;;;;;;;0.10;0.10;;;;;;;;;;4937409;28;20074;-71
2022/01/22 05:00:32;;;;;;;0.10;0.10;;;;;;;;;;4934517;29;20094;-70
2022/01/22 05:03:01;;;;;;;0.10;0.10;;;;;;;;;;4941616;29;20054;-71
2022/01/22 05:05:27;;;;;;;0.10;0.10;;;;;;;;;;4943200;28;20380;-71
2022/01/22 05:07:53;;;;;;;0.40;0.40;;;;;;;;;;4941372;29;20042;-71
2022/01/22 05:10:19;;;;;;;0.10;0.10;;;;;;;;;;4944590;28;20035;-71
2022/01/22 05:12:45;;;;;;;0.10;0.10;;;;;;;;;;4940579;28;20070;-70
2022/01/22 05:15:11;;;;;;;1.02;0.90;;;;;;;;;;4934819;29;20028;-70
2022/01/22 05:17:40;;;;;;;0.08;0.08;;;;;;;;;;4941814;28;20855;-71
2022/01/22 05:20:19;;;;;;;0.05;0.05;;;;;;;;;;4939545;28;20027;-71
2022/01/22 05:25:25;;;;;;;0.20;0.20;;;;;;;;;;4943648;28;20035;-71
2022/01/22 05:28:59;;;;;;;0.10;0.10;;;;;;;;;;4947261;28;20027;-71
2022/01/22 05:38:31;;;;;;;1.65;1.45;;;;;;;;;;4943342;28;20086;-70
2022/01/22 05:40:57;;;;;;;0.10;0.10;;;;;;;;;;4946618;28;20047;-70
2022/01/22 05:43:23;;;;;;;0.75;0.68;;;;;;;;;;4935899;29;20684;-71
2022/01/22 05:45:49;;;;;;;0.43;0.43;;;;;;;;;;4942160;28;20122;-71
2022/01/22 05:48:14;;;;;;;0.00;0.00;;;;;;;;;;4940732;29;20070;-71
2022/01/22 05:50:53;;;;;;;0.13;0.13;;;;;;;;;;4934422;28;20549;-70
2022/01/22 06:01:06;;;;;;;0.10;0.10;;;;;;;;;;4945918;28;20046;-71
2022/01/22 06:03:32;;;;;;;0.10;0.10;;;;;;;;;;4940666;28;20762;-71
2022/01/22 06:05:58;;;;;;;0.10;0.10;;;;;;;;;;4942747;29;20082;-70
2022/01/22 06:08:29;;;;;;;0.00;0.00;;;;;;;;;;4939460;28;20525;-71
2022/01/22 06:10:56;;;;;;;;;;;;;;;;;;4928951;29;20032;-71
2022/01/22 06:13:30;;;;;;;0.10;0.10;;;;;;;;;;4940931;28;20030;-70
2022/01/22 06:15:56;;;;;;;0.10;0.10;;;;;;;;;;4937727;28;20082;-70
2022/01/22 06:18:22;;;;;;;0.10;0.10;;;;;;;;;;4940315;29;20073;-71
2022/01/22 06:20:48;;;;;;;0.10;0.10;;;;;;;;;;4941632;28;20118;-71
2022/01/22 06:23:14;;;;;;;0.10;0.10;;;;;;;;;;4930779;29;20186;-70
2022/01/22 06:25:40;;;;;;;0.10;0.10;;;;;;;;;;4940625;29;20118;-71
2022/01/22 06:28:06;;;;;;;0.10;0.10;;;;;;;;;;4941206;29;20158;-71
2022/01/22 06:30:32;;;;;;;0.10;0.10;;;;;;;;;;4940853;29;20268;-71
2022/01/22 06:32:58;;;;;;;0.13;0.13;;;;;;;;;;4943369;29;20031;-71
2022/01/22 06:35:24;;;;;;;0.10;0.10;;;;;;;;;;4944778;28;20074;-70
2022/01/22 06:37:51;;;;;;;0.10;0.10;;;;;;;;;;4943589;29;20031;-70
2022/01/22 06:42:42;;;;;;;0.17;0.17;;;;;;;;;;4940647;29;20035;-70
2022/01/22 06:45:09;;;;;;;0.10;0.10;;;;;;;;;;4942938;28;20039;-70
2022/01/22 06:47:35;;;;;;;0.08;0.08;;;;;;;;;;4941328;28;20537;-71
2022/01/22 06:50:02;;;;;;;0.10;0.10;;;;;;;;;;4943092;28;20051;-72
2022/01/22 06:52:29;;;;;;;0.75;0.75;;;;;;;;;;4940265;29;20114;-70
2022/01/22 06:54:55;;;;;;;0.57;0.57;;;;;;;;;;4946045;28;20098;-70
2022/01/22 06:57:21;;;;;;;2.65;0.50;;;;;;;;;;4940205;28;20031;-71
2022/01/22 06:59:48;;;;;;;0.32;0.32;;;;;;;;;;4943153;29;20261;-71
2022/01/22 07:02:14;;;;;;;0.40;0.40;;;;;;;;;;4933714;29;20031;-72
2022/01/22 07:04:40;;;;;;;0.28;0.28;;;;;;;;;;4944659;28;20450;-71
2022/01/22 07:07:08;;;;;;;0.20;0.20;;;;;;;;;;4939090;28;20478;-72
2022/01/22 07:09:34;;;;;;;0.00;0.00;;;;;;;;;;4943979;28;20482;-69
2022/01/22 07:11:59;;;;;;;0.17;0.17;;;;;;;;;;4943327;29;20050;-70
2022/01/22 07:14:26;;;;;;;0.20;0.20;;;;;;;;;;4932339;29;20038;-70
2022/01/22 07:16:52;;;;;;;0.00;0.00;;;;;;;;;;4939368;28;20062;-71
2022/01/22 07:19:19;;;;;;;0.80;0.60;;;;;;;;;;4940129;29;20032;-70
2022/01/22 07:22:04;;;;;;;0.10;0.10;;;;;;;;;;4935240;28;20015;-69
2022/01/22 07:24:37;;;;;;;0.43;0.43;;;;;;;;;;4938992;28;20105;-70
2022/01/22 07:27:03;;;;;;;0.10;0.10;;;;;;;;;;4937314;29;20117;-69
2022/01/22 07:29:29;;;;;;;0.20;0.20;;;;;;;;;;4936029;29;20039;-70
2022/01/22 07:31:57;;;;;;;0.20;0.20;;;;;;;;;;4946072;29;20031;-71
2022/01/22 07:34:23;;;;;;;0.10;0.10;;;;;;;;;;4943351;28;20039;-71
2022/01/22 07:36:49;;;;;;;0.10;0.10;;;;;;;;;;4944691;29;20119;-71
2022/01/22 07:39:15;;;;;;;0.30;0.30;;;;;;;;;;4942155;29;20174;-71
2022/01/22 07:41:41;;;;;;;0.10;0.10;;;;;;;;;;4941807;29;20047;-71
2022/01/22 07:44:07;;;;;;;0.03;0.03;;;;;;;;;;4936855;29;20047;-71
2022/01/22 07:46:33;;;;;;;0.32;0.32;;;;;;;;;;4935157;29;20020;-71
2022/01/22 07:48:59;;;;;;;0.10;0.10;;;;;;;;;;4936455;29;20079;-70
2022/01/22 07:51:24;;;;;;;0.00;0.00;;;;;;;;;;4936243;29;20077;-71
2022/01/22 07:53:50;;;;;;;2.65;1.17;;;;;;;;;;4937581;29;20042;-71
2022/01/22 07:56:16;;;;;;;0.30;0.30;;;;;;;;;;4937840;29;20047;-71
2022/01/22 07:58:42;;;;;;;0.10;0.10;;;;;;;;;;4933663;29;20567;-71
2022/01/22 08:01:09;;;;;;;0.10;0.10;;;;;;;;;;4934284;29;20040;-71
2022/01/22 08:03:35;;;;;;;0.10;0.10;;;;;;;;;;4931911;29;20031;-70
2022/01/22 08:06:01;;;;;;;0.30;0.30;;;;;;;;;;4936186;29;20118;-71
2022/01/22 08:08:39;;;;;;;1.63;1.45;;;;;;;;;;4935810;29;20486;-71
2022/01/22 08:11:05;;;;;;;0.43;0.30;;;;;;;;;;4937534;28;20039;-71
2022/01/22 08:13:31;;;;;;;0.10;0.10;;;;;;;;;;4935089;29;20415;-71
2022/01/22 08:15:57;;;;;;;0.30;0.30;;;;;;;;;;4937056;29;20027;-71
2022/01/22 08:18:22;;;;;;;0.45;0.28;;;;;;;;;;4933686;29;20027;-71
2022/01/22 08:20:48;;;;;;;0.10;0.10;;;;;;;;;;4932478;29;20031;-71
2022/01/22 08:23:14;;;;;;;0.22;0.22;;;;;;;;;;4933405;29;20031;-71
2022/01/22 08:25:44;;;;;;;0.63;0.63;;;;;;;;;;4932249;29;20033;-71
2022/01/22 08:30:56;;;;;;;0.10;0.10;;;;;;;;;;4937746;29;20045;-70
2022/01/22 08:35:53;;;;;;;0.10;0.10;;;;;;;;;;4939974;29;20032;-72
2022/01/22 08:38:23;;;;;;;0.13;0.13;;;;;;;;;;4939474;29;20030;-71
2022/01/22 08:40:50;;;;;;;0.10;0.10;;;;;;;;;;4941481;29;20043;-71
2022/01/22 08:43:17;;;;;;;0.10;0.10;;;;;;;;;;4940926;29;20532;-71
2022/01/22 08:45:43;;;;;;;0.10;0.10;;;;;;;;;;4945764;28;20024;-71
2022/01/22 08:48:09;;;;;;;0.10;0.10;;;;;;;;;;4939850;29;20041;-71
2022/01/22 08:50:35;;;;;;;0.10;0.10;;;;;;;;;;4935035;29;20024;-71
2022/01/22 08:53:01;;;;;;;0.00;0.00;;;;;;;;;;4932747;29;20450;-70
2022/01/22 08:55:27;;;;;;;0.00;0.00;;;;;;;;;;4934484;29;20039;-70
2022/01/22 08:57:53;;;;;;;0.08;0.08;;;;;;;;;;4935683;29;20035;-71
2022/01/22 09:00:20;;;;;;;0.00;0.00;;;;;;;;;;4938325;29;20030;-71
2022/01/22 09:02:47;;;;;;;1.70;0.52;;;;;;;;;;4939024;29;20110;-71
2022/01/22 09:05:16;;;;;;;0.10;0.10;;;;;;;;;;4939460;29;20038;-70
2022/01/22 09:07:42;;;;;;;1.00;0.82;;;;;;;;;;4938954;29;20508;-70
2022/01/22 09:10:08;;;;;;;1.75;1.65;;;;;;;;;;4936504;29;20123;-73
2022/01/22 09:12:34;;;;;;;0.55;0.55;;;;;;;;;;4934273;29;20119;-74
2022/01/22 09:15:00;;;;;;;0.80;0.80;;;;;;;;;;4933590;29;20122;-73
2022/01/22 09:17:26;;;;;;;0.65;0.65;;;;;;;;;;4936033;29;20499;-77
2022/01/22 09:19:57;;;;;;;0.22;0.20;;;;;;;;;;4935152;29;20030;-77
2022/01/22 09:22:23;;;;;;;0.30;0.30;;;;;;;;;;4940660;28;20367;-73
2022/01/22 09:24:52;;;;;;;0.00;0.00;;;;;;;;;;4941899;29;20030;-74
2022/01/22 09:27:19;;;;;;;5.32;1.33;;;;;;;;;;4933281;29;20027;-73
2022/01/22 09:29:45;;;;;;;0.10;0.10;;;;;;;;;;4936675;29;20062;-74
2022/01/22 09:32:14;;;;;;;0.20;0.20;;;;;;;;;;4936830;28;20066;-73
2022/01/22 09:34:40;;;;;;;0.10;0.10;;;;;;;;;;4942722;29;20073;-73
2022/01/22 09:37:06;;;;;;;0.20;0.20;;;;;;;;;;4931954;29;20028;-74
2022/01/22 09:39:32;;;;;;;0.15;0.15;;;;;;;;;;4931712;29;20082;-74
2022/01/22 09:41:59;;;;;;;0.10;0.10;;;;;;;;;;4938624;29;20090;-74
2022/01/22 09:44:25;;;;;;;0.57;0.57;;;;;;;;;;4937637;28;20035;-73
2022/01/22 09:46:50;;;;;;;0.10;0.10;;;;;;;;;;4937982;29;20466;-73
2022/01/22 09:49:16;;;;;;;0.40;0.40;;;;;;;;;;4932120;28;20688;-72
2022/01/22 09:51:44;;;;;;;0.32;0.32;;;;;;;;;;4930742;29;20035;-73
2022/01/22 09:54:11;;;;;;;0.52;0.52;;;;;;;;;;4939224;29;20123;-73
2022/01/22 09:56:40;;;;;;;1.08;0.52;;;;;;;;;;4939906;28;20761;-73
2022/01/22 09:59:06;;;;;;;0.10;0.10;;;;;;;;;;4930139;29;20074;-73
2022/01/22 10:01:34;;;;;;;0.10;0.10;;;;;;;;;;4937800;29;20047;-74
2022/01/22 10:04:01;;;;;;;0.10;0.10;;;;;;;;;;4937134;29;20101;-74
2022/01/22 10:06:29;;;;;;;0.17;0.15;;;;;;;;;;4932409;29;20031;-73
2022/01/22 10:09:13;;;;;;;2.25;1.33;;;;;;;;;;4934257;29;20058;-74
2022/01/22 10:11:39;;;;;;;0.10;0.10;;;;;;;;;;4933617;28;20043;-73
2022/01/22 10:14:06;;;;;;;0.20;0.20;;;;;;;;;;4937492;29;20588;-73
2022/01/22 10:16:31;;;;;;;0.25;0.25;;;;;;;;;;4939384;28;20482;-72
2022/01/22 10:19:07;;;;;;;2.28;0.85;;;;;;;;;;4942995;29;20059;-75
2022/01/22 10:21:34;;;;;;;0.10;0.10;;;;;;;;;;4937666;29;20102;-73
2022/01/22 10:24:18;;;;;;;0.20;0.20;;;;;;;;;;4934055;29;20051;-73
2022/01/22 10:26:44;;;;;;;0.17;0.17;;;;;;;;;;4933826;29;20082;-73
2022/01/22 10:29:10;;;;;;;3.20;0.65;;;;;;;;;;4939282;29;20027;-73
2022/01/22 10:31:42;;;;;;;0.10;0.10;;;;;;;;;;4938795;28;20059;-74
2022/01/22 10:34:09;;;;;;;0.10;0.10;;;;;;;;;;4935016;29;20070;-73
2022/01/22 10:36:36;;;;;;;0.20;0.20;;;;;;;;;;4937042;28;20062;-72
2022/01/22 10:39:06;;;;;;;0.00;0.00;;;;;;;;;;4936222;29;20245;-73
2022/01/22 10:41:34;;;;;;;0.00;0.00;;;;;;;;;;4938702;29;20040;-73
2022/01/22 10:44:01;;;;;;;0.20;0.20;;;;;;;;;;4939512;28;20049;-73
2022/01/22 10:46:42;;;;;;;0.10;0.10;;;;;;;;;;4929688;28;20126;-73
2022/01/22 10:49:28;;;;;;;0.10;0.10;;;;;;;;;;4934906;29;20035;-73
2022/01/22 10:51:56;;;;;;;0.20;0.20;;;;;;;;;;4939302;29;20132;-70
2022/01/22 10:54:26;;;;;;;0.25;0.25;;;;;;;;;;4940860;29;20514;-73
2022/01/22 10:56:53;;;;;;;0.10;0.10;;;;;;;;;;4933168;29;20031;-74
2022/01/22 10:59:20;;;;;;;0.10;0.10;;;;;;;;;;4938653;29;20031;-73
2022/01/22 11:01:51;;;;;;;0.03;0.03;;;;;;;;;;4940279;29;20416;-72
2022/01/22 11:04:24;;;;;;;2.65;0.30;;;;;;;;;;4936562;28;20046;-72
2022/01/22 11:06:57;;;;;;;0.10;0.10;;;;;;;;;;4935397;29;20027;-73
2022/01/22 11:09:24;;;;;;;0.20;0.20;;;;;;;;;;4933874;28;20039;-73
2022/01/22 11:11:52;;;;;;;0.10;0.10;;;;;;;;;;4938569;28;20039;-73
2022/01/22 11:14:18;;;;;;;0.00;0.00;;;;;;;;;;4932159;28;20039;-72
2022/01/22 11:16:45;;;;;;;0.10;0.10;;;;;;;;;;4930308;29;20059;-73
2022/01/22 11:19:14;;;;;;;0.13;0.13;;;;;;;;;;4934182;29;20035;-72
2022/01/22 11:21:44;;;;;;;0.20;0.20;;;;;;;;;;4932012;29;20394;-74
2022/01/22 11:24:11;;;;;;;0.25;0.25;;;;;;;;;;4930374;29;20034;-73
2022/01/22 11:26:40;;;;;;;0.35;0.35;;;;;;;;;;4935367;28;20046;-73
2022/01/22 11:29:07;;;;;;;0.50;0.50;;;;;;;;;;4935356;28;20027;-73
2022/01/22 11:31:37;;;;;;;0.00;0.00;;;;;;;;;;4937780;29;20039;-74
2022/01/22 11:34:04;;;;;;;0.00;0.00;;;;;;;;;;4936400;28;20172;-74
2022/01/22 11:36:43;;;;;;;0.08;0.08;;;;;;;;;;4934181;29;20039;-73
2022/01/22 11:39:14;;;;;;;0.10;0.10;;;;;;;;;;4931226;29;20023;-74
2022/01/22 11:41:50;;;;;;;0.52;0.35;;;;;;;;;;4930765;28;20034;-73
2022/01/22 11:44:23;;;;;;;0.30;0.30;;;;;;;;;;4935058;28;20023;-73
2022/01/22 11:46:58;;;;;;;0.20;0.20;;;;;;;;;;4931938;29;20023;-73
2022/01/22 11:49:31;;;;;;;0.25;0.25;;;;;;;;;;4931786;29;20040;-73
2022/01/22 11:52:09;;;;;;;0.15;0.15;;;;;;;;;;4936787;29;20035;-73
2022/01/22 11:54:51;;;;;;;0.85;0.65;;;;;;;;;;4938469;29;20497;-76
2022/01/22 11:57:17;;;;;;;0.00;0.00;;;;;;;;;;4940589;29;20019;-73
2022/01/22 11:59:47;;;;;;;0.10;0.10;;;;;;;;;;4946778;29;20482;-72
2022/01/22 12:02:14;;;;;;;0.00;0.00;;;;;;;;;;4938178;29;20106;-72
2022/01/22 12:04:40;;;;;;;0.10;0.10;;;;;;;;;;4943104;29;20050;-71
2022/01/22 12:07:09;;;;;;;0.43;0.25;;;;;;;;;;4940659;28;20039;-71
2022/01/22 12:15:20;;;;;;;0.25;0.25;;;;;;;;;;4944288;29;20041;-72
2022/01/22 12:18:03;;;;;;;0.10;0.10;;;;;;;;;;4941055;28;20054;-72
2022/01/22 12:23:11;;;;;;;0.32;0.32;;;;;;;;;;4944580;28;20030;-71
2022/01/22 12:25:40;;;;;;;0.25;0.25;;;;;;;;;;4940370;28;20034;-72
2022/01/22 12:28:09;;;;;;;0.65;0.30;;;;;;;;;;4941223;29;20033;-71
2022/01/22 12:30:49;;;;;;;0.20;0.20;;;;;;;;;;4939121;29;20042;-73
2022/01/22 12:33:35;;;;;;;0.25;0.20;;;;;;;;;;4935422;28;20146;-73
2022/01/22 12:36:02;;;;;;;0.05;0.05;;;;;;;;;;4939507;29;20030;-73
2022/01/22 12:38:35;;;;;;;0.20;0.20;;;;;;;;;;4939527;28;20066;-73
2022/01/22 12:41:25;;;;;;;0.32;0.32;;;;;;;;;;4944638;28;20043;-73
2022/01/22 12:43:52;;;;;;;0.73;0.30;;;;;;;;;;4939549;29;20086;-74
2022/01/22 12:46:18;;;;;;;0.03;0.03;;;;;;;;;;4944248;29;20035;-72
2022/01/22 12:48:44;;;;;;;0.00;0.00;;;;;;;;;;4935955;29;20031;-73
2022/01/22 12:51:10;;;;;;;0.00;0.00;;;;;;;;;;4932185;29;20114;-72
2022/01/22 12:53:38;;;;;;;0.10;0.10;;;;;;;;;;4938826;29;20122;-73
2022/01/22 12:56:35;;;;;;;0.10;0.10;;;;;;;;;;4939991;28;20106;-72
2022/01/22 12:59:04;;;;;;;0.00;0.00;;;;;;;;;;4938256;29;20039;-72
2022/01/22 13:01:32;;;;;;;0.30;0.30;;;;;;;;;;4933867;29;20104;-73
2022/01/22 13:04:01;;;;;;;0.32;0.32;;;;;;;;;;4944798;28;20093;-73
2022/01/22 13:06:37;;;;;;;0.45;0.45;;;;;;;;;;4940689;29;20123;-72
2022/01/22 13:09:03;;;;;;;0.10;0.10;;;;;;;;;;4936368;29;20035;-72
2022/01/22 13:11:31;;;;;;;0.43;0.43;;;;;;;;;;4931447;28;20027;-72
2022/01/22 13:13:58;;;;;;;0.45;0.45;;;;;;;;;;4941404;29;20450;-72
2022/01/22 13:16:24;;;;;;;0.90;0.32;;;;;;;;;;4943863;29;20055;-72
2022/01/22 13:19:00;;;;;;;1.27;0.98;;;;;;;;;;4940536;28;20486;-73
2022/01/22 13:21:27;;;;;;;0.00;0.00;;;;;;;;;;4940830;29;20053;-74
2022/01/22 13:24:00;;;;;;;0.30;0.30;;;;;;;;;;4939198;29;20046;-70
2022/01/22 13:26:44;;;;;;;0.22;0.22;;;;;;;;;;4941406;29;20086;-73
2022/01/22 13:29:29;;;;;;;0.20;0.20;;;;;;;;;;4943950;29;20060;-74
2022/01/22 13:32:35;;;;;;;0.45;0.32;;;;;;;;;;4944883;29;20110;-72
2022/01/22 13:35:05;;;;;;;1.65;1.10;;;;;;;;;;4945228;28;20039;-74
2022/01/22 13:40:38;;;;;;;0.50;0.50;;;;;;;;;;4942354;29;20057;-73
2022/01/22 13:48:28;;;;;;;0.00;0.00;;;;;;;;;;4947828;29;20055;-74
2022/01/22 13:50:54;;;;;;;0.70;0.35;;;;;;;;;;4941772;29;20058;-72
2022/01/22 13:53:21;;;;;;;5.57;1.25;;;;;;;;;;4940649;29;20439;-73
2022/01/22 13:56:00;;;;;;;0.00;0.00;;;;;;;;;;4937641;28;20031;-73
2022/01/22 13:58:26;;;;;;;0.70;0.25;;;;;;;;;;4943720;29;20119;-73
2022/01/22 14:00:52;;;;;;;0.15;0.15;;;;;;;;;;4941776;29;20019;-73
2022/01/22 14:05:53;;;;;;;0.05;0.05;;;;;;;;;;4942034;29;20074;-73
2022/01/22 14:08:29;;;;;;;0.40;0.40;;;;;;;;;;4944826;28;20477;-73
2022/01/22 14:11:07;;;;;;;0.13;0.13;;;;;;;;;;4936075;28;20083;-73
2022/01/22 14:13:33;;;;;;;0.05;0.05;;;;;;;;;;4936761;28;20043;-73
2022/01/22 14:16:14;;;;;;;0.10;0.10;;;;;;;;;;4943028;28;20110;-73
2022/01/22 14:18:41;;;;;;;0.10;0.10;;;;;;;;;;4941416;28;20066;-80
2022/01/22 14:21:08;;;;;;;0.08;0.08;;;;;;;;;;4940315;29;20027;-76
2022/01/22 14:23:35;;;;;;;0.10;0.10;;;;;;;;;;4937097;29;20026;-74
2022/01/22 14:26:01;;;;;;;0.10;0.10;;;;;;;;;;4936764;29;20395;-73
2022/01/22 14:28:47;;;;;;;0.20;0.20;;;;;;;;;;4935776;29;20036;-73
2022/01/22 14:31:18;;;;;;;0.50;0.50;;;;;;;;;;4944042;28;20490;-73
2022/01/22 14:33:44;;;;;;;0.70;0.45;;;;;;;;;;4941627;29;20047;-73
2022/01/22 14:36:14;;;;;;;0.20;0.20;;;;;;;;;;4941967;28;20126;-74
2022/01/22 14:38:44;;;;;;;0.10;0.10;;;;;;;;;;4941059;28;20482;-74
2022/01/22 14:46:24;;;;;;;0.82;0.82;;;;;;;;;;4941275;29;20028;-75
2022/01/22 14:48:50;;;;;;;4.65;1.95;;;;;;;;;;4931895;29;20035;-75
2022/01/22 14:51:16;;;;;;;4.90;1.35;;;;;;;;;;4937239;29;20039;-75
2022/01/22 14:53:42;;;;;;;0.38;0.30;;;;;;;;;;4943910;28;20054;-75
2022/01/22 14:56:08;;;;;;;0.40;0.40;;;;;;;;;;4944718;29;20054;-75
2022/01/22 14:58:36;;;;;;;0.45;0.45;;;;;;;;;;4945309;29;20090;-75
2022/01/22 15:01:02;;;;;;;0.20;0.20;;;;;;;;;;4941431;28;20067;-75
2022/01/22 15:03:28;;;;;;;1.17;0.43;;;;;;;;;;4934310;29;20561;-75
2022/01/22 15:05:54;;;;;;;1.10;0.98;;;;;;;;;;4945838;29;20037;-80
2022/01/22 15:08:20;;;;;;;1.75;0.63;;;;;;;;;;4942734;29;20450;-73
2022/01/22 15:10:46;;;;;;;0.28;0.15;;;;;;;;;;4936422;29;20028;-74
2022/01/22 15:13:11;;;;;;;0.55;0.55;;;;;;;;;;4939687;29;20074;-74
2022/01/22 15:15:42;;;;;;;0.38;0.38;;;;;;;;;;4937951;29;20390;-74
2022/01/22 15:18:13;;;;;;;0.63;0.63;;;;;;;;;;4937528;28;20035;-74
2022/01/22 15:20:40;;;;;;;0.32;0.32;;;;;;;;;;4939747;29;20035;-73
2022/01/22 15:23:06;;;;;;;0.93;0.63;;;;;;;;;;4944504;28;20402;-80
2022/01/22 15:25:32;;;;;;;0.10;0.10;;;;;;;;;;4940153;29;20040;-75
2022/01/22 15:27:58;;;;;;;0.25;0.25;;;;;;;;;;4942614;29;20031;-74
2022/01/22 15:30:30;;;;;;;0.60;0.60;;;;;;;;;;4941366;29;20401;-75
2022/01/22 15:33:16;;;;;;;0.10;0.10;;;;;;;;;;4933129;28;20715;-75
2022/01/22 15:35:42;;;;;;;0.00;0.00;;;;;;;;;;4934376;29;20024;-74
2022/01/22 15:38:08;;;;;;;0.10;0.10;;;;;;;;;;4943693;29;20054;-74
2022/01/22 15:40:35;;;;;;;1.02;0.57;;;;;;;;;;4938817;29;20532;-74
2022/01/22 15:43:02;;;;;;;0.40;0.40;;;;;;;;;;4940106;28;20027;-75
2022/01/22 15:45:31;;;;;;;0.10;0.10;;;;;;;;;;4944242;29;20090;-75
2022/01/22 15:47:57;;;;;;;0.38;0.38;;;;;;;;;;4942113;28;20039;-75
2022/01/22 15:50:24;;;;;;;0.10;0.10;;;;;;;;;;4926633;29;20184;-76
2022/01/22 15:52:50;;;;;;;0.95;0.80;;;;;;;;;;4936110;28;20027;-75
2022/01/22 15:55:16;;;;;;;0.45;0.45;;;;;;;;;;4941129;28;20023;-74
2022/01/22 15:57:42;;;;;;;0.63;0.63;;;;;;;;;;4943041;29;20046;-74
2022/01/22 16:00:09;;;;;;;0.20;0.20;;;;;;;;;;4940665;28;20118;-75
2022/01/22 16:02:36;;;;;;;3.42;0.80;;;;;;;;;;4934728;28;20023;-74
2022/01/22 16:05:04;;;;;;;0.10;0.10;;;;;;;;;;4928746;28;20075;-75
2022/01/22 16:07:31;;;;;;;0.28;0.28;;;;;;;;;;4927842;29;20035;-75
2022/01/22 16:09:58;;;;;;;0.10;0.10;;;;;;;;;;4931333;29;20040;-74
2022/01/22 16:12:25;;;;;;;1.25;0.52;;;;;;;;;;4941315;28;20039;-74
2022/01/22 16:14:51;;;;;;;1.25;0.52;;;;;;;;;;4945627;28;20490;-75
2022/01/22 16:17:18;;;;;;;0.40;0.40;;;;;;;;;;4938030;29;20035;-74
2022/01/22 16:19:44;;;;;;;0.20;0.20;;;;;;;;;;4926731;29;20038;-75
2022/01/22 16:22:11;;;;;;;0.10;0.10;;;;;;;;;;4937813;29;20413;-76
2022/01/22 16:24:36;;;;;;;0.38;0.38;;;;;;;;;;4932338;29;20031;-75
2022/01/22 16:27:03;;;;;;;0.10;0.10;;;;;;;;;;4939670;29;20028;-74
2022/01/22 16:29:29;;;;;;;0.47;0.47;;;;;;;;;;4932965;29;20027;-71
2022/01/22 16:31:55;;;;;;;1.45;0.98;;;;;;;;;;4937394;29;20516;-74
2022/01/22 16:34:21;;;;;;;0.47;0.47;;;;;;;;;;4938949;29;20024;-74
2022/01/22 16:36:47;;;;;;;0.15;0.15;;;;;;;;;;4937326;29;20051;-74
2022/01/22 16:39:13;;;;;;;0.38;0.38;;;;;;;;;;4938634;29;20027;-74
2022/01/22 16:41:39;;;;;;;0.10;0.10;;;;;;;;;;4937438;29;20046;-74
2022/01/22 16:44:19;;;;;;;2.75;0.73;;;;;;;;;;4944177;28;20031;-75
2022/01/22 16:51:17;;;;;;;0.30;0.30;;;;;;;;;;4944575;29;20046;-74
2022/01/22 16:52:55;;;;;;;0.52;0.52;;;;;;;;;;4937454;29;20030;-74